sensor_id;sensor_type;location;lat;lon;timestamp;pressure;altitude;pressure_sealevel;temperature;humidity
5877;BME280;2964;42.144;24.730;2023-10-09T00:01:43;147025.66;;;22.01;51.17
5877;BME280;2964;42.144;24.730;2023-10-09T00:04:11;146985.13;;;21.85;51.30
5877;BME280;2964;42.144;24.730;2023-10-09T00:06:39;147029.47;;;22.03;50.98
5877;BME280;2964;42.144;24.730;2023-10-09T00:09:07;147023.09;;;22.00;51.60
5877;BME280;2964;42.144;24.730;2023-10-09T00:11:58;147025.66;;;22.01;51.10
5877;BME280;2964;42.144;24.730;2023-10-09T00:14:26;146987.66;;;21.86;51.69
5877;BME280;2964;42.144;24.730;2023-10-09T00:16:56;146957.25;;;21.73;52.69
5877;BME280;2964;42.144;24.730;2023-10-09T00:19:30;146963.56;;;21.76;52.25
5877;BME280;2964;42.144;24.730;2023-10-09T00:21:58;146957.25;;;21.73;52.44
5877;BME280;2964;42.144;24.730;2023-10-09T00:24:32;146895.19;;;21.48;53.17
5877;BME280;2964;42.144;24.730;2023-10-09T00:27:00;146859.66;;;21.34;54.51
5877;BME280;2964;42.144;24.730;2023-10-09T00:29:37;146848.28;;;21.29;53.99
5877;BME280;2964;42.144;24.730;2023-10-09T00:32:10;146896.47;;;21.49;52.66
5877;BME280;2964;42.144;24.730;2023-10-09T00:34:41;146954.69;;;21.72;52.10
5877;BME280;2964;42.144;24.730;2023-10-09T00:37:08;146934.47;;;21.64;52.31
5877;BME280;2964;42.144;24.730;2023-10-09T00:39:38;146888.88;;;21.46;53.11
5877;BME280;2964;42.144;24.730;2023-10-09T00:42:10;146888.88;;;21.46;53.95
5877;BME280;2964;42.144;24.730;2023-10-09T00:44:39;146822.94;;;21.19;54.10
5877;BME280;2964;42.144;24.730;2023-10-09T00:47:09;146793.84;;;21.07;54.89
5877;BME280;2964;42.144;24.730;2023-10-09T00:49:52;146788.78;;;21.05;54.25
5877;BME280;2964;42.144;24.730;2023-10-09T00:52:26;146771.06;;;20.98;53.77
5877;BME280;2964;42.144;24.730;2023-10-09T00:54:58;146796.41;;;21.08;53.73
5877;BME280;2964;42.144;24.730;2023-10-09T00:57:33;146781.19;;;21.02;52.94
5877;BME280;2964;42.144;24.730;2023-10-09T01:00:04;146838.19;;;21.25;51.90
5877;BME280;2964;42.144;24.730;2023-10-09T01:02:38;146866.03;;;21.36;51.50
5877;BME280;2964;42.144;24.730;2023-10-09T01:05:08;146866.03;;;21.36;50.42
5877;BME280;2964;42.144;24.730;2023-10-09T01:07:45;146891.38;;;21.47;50.19
5877;BME280;2964;42.144;24.730;2023-10-09T01:10:13;146887.63;;;21.45;49.99
5877;BME280;2964;42.144;24.730;2023-10-09T01:12:43;146883.75;;;21.44;50.14
5877;BME280;2964;42.144;24.730;2023-10-09T01:15:12;146890.13;;;21.46;49.57
5877;BME280;2964;42.144;24.730;2023-10-09T01:18:02;146887.63;;;21.45;49.32
5877;BME280;2964;42.144;24.730;2023-10-09T01:20:29;146843.22;;;21.27;50.11
5877;BME280;2964;42.144;24.730;2023-10-09T01:23:03;146874.88;;;21.40;49.64
5877;BME280;2964;42.144;24.730;2023-10-09T01:25:31;146850.84;;;21.30;49.85
5877;BME280;2964;42.144;24.730;2023-10-09T01:28:07;146814.09;;;21.15;49.93
5877;BME280;2964;42.144;24.730;2023-10-09T01:30:34;146840.69;;;21.26;49.69
5877;BME280;2964;42.144;24.730;2023-10-09T01:33:07;146814.09;;;21.15;50.88
5877;BME280;2964;42.144;24.730;2023-10-09T01:35:43;146814.09;;;21.15;51.45
5877;BME280;2964;42.144;24.730;2023-10-09T01:38:16;146747.03;;;20.88;53.18
5877;BME280;2964;42.144;24.730;2023-10-09T01:40:42;146767.25;;;20.96;52.14
5877;BME280;2964;42.144;24.730;2023-10-09T01:43:10;146721.69;;;20.78;53.15
5877;BME280;2964;42.144;24.730;2023-10-09T01:45:37;146714.06;;;20.75;52.44
5877;BME280;2964;42.144;24.730;2023-10-09T01:48:08;146686.25;;;20.63;52.95
5877;BME280;2964;42.144;24.730;2023-10-09T01:50:37;146690.03;;;20.65;52.52
5877;BME280;2964;42.144;24.730;2023-10-09T01:53:07;146720.44;;;20.77;52.41
5877;BME280;2964;42.144;24.730;2023-10-09T01:55:35;146677.31;;;20.60;53.02
5877;BME280;2964;42.144;24.730;2023-10-09T01:58:05;146617.84;;;20.36;54.27
5877;BME280;2964;42.144;24.730;2023-10-09T02:00:35;146587.50;;;20.23;55.05
5877;BME280;2964;42.144;24.730;2023-10-09T02:03:08;146558.38;;;20.12;54.74
5877;BME280;2964;42.144;24.730;2023-10-09T02:05:38;146536.91;;;20.03;54.54
5877;BME280;2964;42.144;24.730;2023-10-09T02:08:05;146536.91;;;20.03;54.81
5877;BME280;2964;42.144;24.730;2023-10-09T02:10:36;146560.94;;;20.13;54.47
5877;BME280;2964;42.144;24.730;2023-10-09T02:13:06;146573.59;;;20.18;53.69
5877;BME280;2964;42.144;24.730;2023-10-09T02:15:36;146483.78;;;19.81;53.74
5877;BME280;2964;42.144;24.730;2023-10-09T02:18:18;146598.88;;;20.28;54.03
5877;BME280;2964;42.144;24.730;2023-10-09T02:20:53;146574.84;;;20.18;53.82
5877;BME280;2964;42.144;24.730;2023-10-09T02:23:26;146540.69;;;20.04;54.51
5877;BME280;2964;42.144;24.730;2023-10-09T02:26:05;146612.78;;;20.34;53.64
5877;BME280;2964;42.144;24.730;2023-10-09T02:28:34;146488.81;;;19.83;56.46
5877;BME280;2964;42.144;24.730;2023-10-09T02:31:08;146335.75;;;19.21;58.82
5877;BME280;2964;42.144;24.730;2023-10-09T02:33:36;146221.91;;;18.75;59.68
5877;BME280;2964;42.144;24.730;2023-10-09T02:36:04;146067.75;;;18.12;62.20
5877;BME280;2964;42.144;24.730;2023-10-09T02:38:32;146028.63;;;17.97;61.79
5877;BME280;2964;42.144;24.730;2023-10-09T02:41:02;145967.91;;;17.72;62.61
5877;BME280;2964;42.144;24.730;2023-10-09T02:43:47;145893.44;;;17.42;63.76
5877;BME280;2964;42.144;24.730;2023-10-09T02:46:17;145882.03;;;17.37;62.88
5877;BME280;2964;42.144;24.730;2023-10-09T02:48:45;145882.03;;;17.37;62.22
5877;BME280;2964;42.144;24.730;2023-10-09T02:51:16;145781.06;;;16.96;62.26
5877;BME280;2964;42.144;24.730;2023-10-09T02:53:57;145748.25;;;16.83;62.36
5877;BME280;2964;42.144;24.730;2023-10-09T02:56:24;145731.78;;;16.76;61.63
5877;BME280;2964;42.144;24.730;2023-10-09T02:59:04;145704.00;;;16.65;61.46
5877;BME280;2964;42.144;24.730;2023-10-09T03:01:32;145696.44;;;16.62;61.32
5877;BME280;2964;42.144;24.730;2023-10-09T03:04:02;145683.84;;;16.56;61.10
5877;BME280;2964;42.144;24.730;2023-10-09T03:06:30;145619.47;;;16.30;61.91
5877;BME280;2964;42.144;24.730;2023-10-09T03:08:59;145613.16;;;16.28;61.73
5877;BME280;2964;42.144;24.730;2023-10-09T03:11:27;145615.72;;;16.29;61.97
5877;BME280;2964;42.144;24.730;2023-10-09T03:13:57;145639.66;;;16.38;61.57
5877;BME280;2964;42.144;24.730;2023-10-09T03:16:25;145632.09;;;16.35;61.51
5877;BME280;2964;42.144;24.730;2023-10-09T03:18:52;145516.06;;;15.88;63.26
5877;BME280;2964;42.144;24.730;2023-10-09T03:21:19;145519.78;;;15.90;62.70
5877;BME280;2964;42.144;24.730;2023-10-09T03:23:47;145505.94;;;15.84;62.75
5877;BME280;2964;42.144;24.730;2023-10-09T03:26:15;145444.13;;;15.59;63.16
5877;BME280;2964;42.144;24.730;2023-10-09T03:28:43;145316.78;;;15.07;63.59
5877;BME280;2964;42.144;24.730;2023-10-09T03:31:10;145399.97;;;15.41;64.33
5877;BME280;2964;42.144;24.730;2023-10-09T03:33:38;145430.25;;;15.53;63.50
5877;BME280;2964;42.144;24.730;2023-10-09T03:36:05;145460.47;;;15.66;63.00
5877;BME280;2964;42.144;24.730;2023-10-09T03:38:35;145410.06;;;15.45;63.48
5877;BME280;2964;42.144;24.730;2023-10-09T03:41:02;145442.81;;;15.58;63.33
5877;BME280;2964;42.144;24.730;2023-10-09T03:43:31;145388.66;;;15.36;63.75
5877;BME280;2964;42.144;24.730;2023-10-09T03:46:00;145382.31;;;15.34;64.08
5877;BME280;2964;42.144;24.730;2023-10-09T03:48:28;145362.16;;;15.25;64.17
5877;BME280;2964;42.144;24.730;2023-10-09T03:51:00;145364.66;;;15.27;64.24
5877;BME280;2964;42.144;24.730;2023-10-09T03:53:34;145318.03;;;15.08;65.14
5877;BME280;2964;42.144;24.730;2023-10-09T03:56:04;145364.66;;;15.27;64.41
5877;BME280;2964;42.144;24.730;2023-10-09T03:58:38;145347.00;;;15.19;64.64
5877;BME280;2964;42.144;24.730;2023-10-09T04:01:08;145328.09;;;15.12;64.14
5877;BME280;2964;42.144;24.730;2023-10-09T04:03:39;145372.25;;;15.30;64.05
5877;BME280;2964;42.144;24.730;2023-10-09T04:06:07;145413.84;;;15.47;62.95
5877;BME280;2964;42.144;24.730;2023-10-09T04:08:36;145345.75;;;15.19;63.06
5877;BME280;2964;42.144;24.730;2023-10-09T04:11:05;145348.31;;;15.20;62.99
5877;BME280;2964;42.144;24.730;2023-10-09T04:13:41;145343.22;;;15.18;62.79
5877;BME280;2964;42.144;24.730;2023-10-09T04:16:11;145359.63;;;15.24;62.47
5877;BME280;2964;42.144;24.730;2023-10-09T04:18:59;145352.03;;;15.21;61.72
5877;BME280;2964;42.144;24.730;2023-10-09T04:21:32;145339.47;;;15.16;62.16
5877;BME280;2964;42.144;24.730;2023-10-09T04:24:03;145319.28;;;15.08;62.33
5877;BME280;2964;42.144;24.730;2023-10-09T04:26:49;145345.75;;;15.19;62.75
5877;BME280;2964;42.144;24.730;2023-10-09T04:29:22;145315.50;;;15.06;61.08
5877;BME280;2964;42.144;24.730;2023-10-09T04:31:52;145281.50;;;14.93;61.31
5877;BME280;2964;42.144;24.730;2023-10-09T04:34:20;145231.09;;;14.72;60.67
5877;BME280;2964;42.144;24.730;2023-10-09T04:36:56;145208.41;;;14.63;60.52
5877;BME280;2964;42.144;24.730;2023-10-09T04:39:26;145199.56;;;14.59;60.07
5877;BME280;2964;42.144;24.730;2023-10-09T04:42:02;145178.09;;;14.51;60.02
5877;BME280;2964;42.144;24.730;2023-10-09T04:44:47;145137.78;;;14.34;59.81
5877;BME280;2964;42.144;24.730;2023-10-09T04:47:46;145140.31;;;14.35;59.73
5877;BME280;2964;42.144;24.730;2023-10-09T04:50:24;145127.72;;;14.30;59.37
5877;BME280;2964;42.144;24.730;2023-10-09T04:53:13;145136.53;;;14.34;59.39
5877;BME280;2964;42.144;24.730;2023-10-09T04:55:48;145105.03;;;14.21;59.06
5877;BME280;2964;42.144;24.730;2023-10-09T04:58:21;145132.75;;;14.32;58.74
5877;BME280;2964;42.144;24.730;2023-10-09T05:00:51;145125.16;;;14.29;58.02
5877;BME280;2964;42.144;24.730;2023-10-09T05:03:30;145001.75;;;13.79;58.41
5877;BME280;2964;42.144;24.730;2023-10-09T05:06:10;145054.66;;;14.00;58.97
5877;BME280;2964;42.144;24.730;2023-10-09T05:08:59;145092.44;;;14.16;57.87
5877;BME280;2964;42.144;24.730;2023-10-09T05:11:34;145106.28;;;14.21;57.70
5877;BME280;2964;42.144;24.730;2023-10-09T05:14:19;145072.28;;;14.07;57.77
5877;BME280;2964;42.144;24.730;2023-10-09T05:16:53;145082.38;;;14.12;57.07
5877;BME280;2964;42.144;24.730;2023-10-09T05:19:26;145103.78;;;14.20;56.59
5877;BME280;2964;42.144;24.730;2023-10-09T05:22:10;145077.34;;;14.09;56.94
5877;BME280;2964;42.144;24.730;2023-10-09T05:24:56;145092.44;;;14.16;55.72
5877;BME280;2964;42.144;24.730;2023-10-09T05:27:23;145082.38;;;14.12;55.03
5877;BME280;2964;42.144;24.730;2023-10-09T05:30:11;145121.44;;;14.27;53.76
5877;BME280;2964;42.144;24.730;2023-10-09T05:32:55;145092.44;;;14.16;53.00
5877;BME280;2964;42.144;24.730;2023-10-09T05:35:25;145069.75;;;14.06;52.94
5877;BME280;2964;42.144;24.730;2023-10-09T05:38:07;145067.25;;;14.05;52.97
5877;BME280;2964;42.144;24.730;2023-10-09T05:40:42;145033.22;;;13.92;53.44
5877;BME280;2964;42.144;24.730;2023-10-09T05:43:18;145083.59;;;14.12;53.20
5877;BME280;2964;42.144;24.730;2023-10-09T05:45:59;145072.28;;;14.07;53.60
5877;BME280;2964;42.144;24.730;2023-10-09T05:48:35;145098.72;;;14.18;53.63
5877;BME280;2964;42.144;24.730;2023-10-09T05:51:20;145112.59;;;14.24;53.63
5877;BME280;2964;42.144;24.730;2023-10-09T05:54:05;145150.38;;;14.39;53.36
5877;BME280;2964;42.144;24.730;2023-10-09T05:56:47;145145.34;;;14.37;53.51
5877;BME280;2964;42.144;24.730;2023-10-09T05:59:31;145130.19;;;14.31;53.48
5877;BME280;2964;42.144;24.730;2023-10-09T06:02:15;145176.84;;;14.50;53.28
5877;BME280;2964;42.144;24.730;2023-10-09T06:04:58;145220.97;;;14.68;52.23
5877;BME280;2964;42.144;24.730;2023-10-09T06:07:30;145255.00;;;14.82;51.96
5877;BME280;2964;42.144;24.730;2023-10-09T06:10:27;145276.44;;;14.91;51.26
5877;BME280;2964;42.144;24.730;2023-10-09T06:13:04;145319.28;;;15.08;50.69
5877;BME280;2964;42.144;24.730;2023-10-09T06:15:36;145340.72;;;15.17;50.00
5877;BME280;2964;42.144;24.730;2023-10-09T06:18:17;145362.16;;;15.25;49.74
5877;BME280;2964;42.144;24.730;2023-10-09T06:20:58;145304.16;;;15.02;50.40
5877;BME280;2964;42.144;24.730;2023-10-09T06:23:35;145314.25;;;15.06;49.87
5877;BME280;2964;42.144;24.730;2023-10-09T06:26:35;145299.13;;;15.00;49.81
5877;BME280;2964;42.144;24.730;2023-10-09T06:29:03;145330.66;;;15.13;48.97
5877;BME280;2964;42.144;24.730;2023-10-09T06:31:42;145278.94;;;14.92;49.81
5877;BME280;2964;42.144;24.730;2023-10-09T06:34:26;145287.78;;;14.95;49.21
5877;BME280;2964;42.144;24.730;2023-10-09T06:37:00;145355.84;;;15.23;49.03
5877;BME280;2964;42.144;24.730;2023-10-09T06:39:34;145335.69;;;15.15;49.04
5877;BME280;2964;42.144;24.730;2023-10-09T06:42:15;145329.34;;;15.12;48.65
5877;BME280;2964;42.144;24.730;2023-10-09T06:44:59;145243.69;;;14.77;49.69
5877;BME280;2964;42.144;24.730;2023-10-09T06:47:29;145233.56;;;14.73;50.02
5877;BME280;2964;42.144;24.730;2023-10-09T06:50:07;145232.31;;;14.73;50.17
5877;BME280;2964;42.144;24.730;2023-10-09T06:52:51;145231.09;;;14.72;50.23
5877;BME280;2964;42.144;24.730;2023-10-09T06:55:44;145268.88;;;14.88;49.77
5877;BME280;2964;42.144;24.730;2023-10-09T06:58:16;145283.97;;;14.94;50.02
5877;BME280;2964;42.144;24.730;2023-10-09T07:00:52;145277.69;;;14.91;50.03
5877;BME280;2964;42.144;24.730;2023-10-09T07:03:45;145310.44;;;15.04;49.65
5877;BME280;2964;42.144;24.730;2023-10-09T07:06:26;145315.50;;;15.06;49.91
5877;BME280;2964;42.144;24.730;2023-10-09T07:09:10;145314.25;;;15.06;49.68
5877;BME280;2964;42.144;24.730;2023-10-09T07:11:45;145294.09;;;14.98;49.34
5877;BME280;2964;42.144;24.730;2023-10-09T07:14:25;145286.53;;;14.95;49.36
5877;BME280;2964;42.144;24.730;2023-10-09T07:17:10;145345.75;;;15.19;49.20
5877;BME280;2964;42.144;24.730;2023-10-09T07:19:49;145363.41;;;15.26;49.09
5877;BME280;2964;42.144;24.730;2023-10-09T07:22:35;145369.69;;;15.29;48.86
5877;BME280;2964;42.144;24.730;2023-10-09T07:25:18;145413.84;;;15.47;48.59
5877;BME280;2964;42.144;24.730;2023-10-09T07:27:53;145422.66;;;15.50;48.56
5877;BME280;2964;42.144;24.730;2023-10-09T07:30:21;145516.06;;;15.88;47.55
5877;BME280;2964;42.144;24.730;2023-10-09T07:33:05;145572.78;;;16.11;46.92
5877;BME280;2964;42.144;24.730;2023-10-09T07:35:43;145637.13;;;16.37;47.08
5877;BME280;2964;42.144;24.730;2023-10-09T07:38:24;145733.03;;;16.76;45.98
5877;BME280;2964;42.144;24.730;2023-10-09T07:40:56;145753.28;;;16.85;45.60
5877;BME280;2964;42.144;24.730;2023-10-09T07:43:27;145717.91;;;16.70;46.13
5877;BME280;2964;42.144;24.730;2023-10-09T07:45:55;145676.25;;;16.53;46.59
5877;BME280;2964;42.144;24.730;2023-10-09T07:48:37;145801.28;;;17.04;45.36
5877;BME280;2964;42.144;24.730;2023-10-09T07:51:14;145946.47;;;17.63;43.43
5877;BME280;2964;42.144;24.730;2023-10-09T07:53:41;146105.69;;;18.28;42.35
5877;BME280;2964;42.144;24.730;2023-10-09T07:56:10;146066.50;;;18.12;42.86
5877;BME280;2964;42.144;24.730;2023-10-09T07:58:39;146138.53;;;18.41;42.74
5877;BME280;2964;42.144;24.730;2023-10-09T08:01:13;146197.91;;;18.65;40.76
5877;BME280;2964;42.144;24.730;2023-10-09T08:03:49;146143.59;;;18.43;41.41
5877;BME280;2964;42.144;24.730;2023-10-09T08:06:27;146007.13;;;17.88;43.22
5877;BME280;2964;42.144;24.730;2023-10-09T08:09:08;146010.94;;;17.89;42.97
5877;BME280;2964;42.144;24.730;2023-10-09T08:11:46;146143.59;;;18.43;41.94
5877;BME280;2964;42.144;24.730;2023-10-09T08:14:30;146378.75;;;19.39;41.00
5877;BME280;2964;42.144;24.730;2023-10-09T08:17:13;146506.53;;;19.91;38.59
5877;BME280;2964;42.144;24.730;2023-10-09T08:19:46;146587.50;;;20.23;38.68
5877;BME280;2964;42.144;24.730;2023-10-09T08:22:23;146744.47;;;20.87;37.49
5877;BME280;2964;42.144;24.730;2023-10-09T08:25:08;146899.00;;;21.50;36.18
5877;BME280;2964;42.144;24.730;2023-10-09T08:27:52;147033.28;;;22.04;34.90
5877;BME280;2964;42.144;24.730;2023-10-09T08:30:21;147289.34;;;23.08;32.98
5877;BME280;2964;42.144;24.730;2023-10-09T08:33:05;147324.88;;;23.22;32.39
5877;BME280;2964;42.144;24.730;2023-10-09T08:35:54;147127.06;;;22.42;33.68
5877;BME280;2964;42.144;24.730;2023-10-09T08:38:27;147177.75;;;22.63;34.58
5877;BME280;2964;42.144;24.730;2023-10-09T08:41:06;147147.34;;;22.50;34.70
5877;BME280;2964;42.144;24.730;2023-10-09T08:43:47;147333.75;;;23.26;32.90
5877;BME280;2964;42.144;24.730;2023-10-09T08:46:17;147403.47;;;23.54;32.50
5877;BME280;2964;42.144;24.730;2023-10-09T08:48:45;147548.13;;;24.13;31.29
5877;BME280;2964;42.144;24.730;2023-10-09T08:51:14;147541.75;;;24.10;31.31
5877;BME280;2964;42.144;24.730;2023-10-09T08:53:42;147629.28;;;24.45;31.12
5877;BME280;2964;42.144;24.730;2023-10-09T08:56:12;147833.75;;;25.28;29.78
5877;BME280;2964;42.144;24.730;2023-10-09T08:58:41;147725.84;;;24.84;30.07
5877;BME280;2964;42.144;24.730;2023-10-09T09:01:07;147911.19;;;25.59;28.49
5877;BME280;2964;42.144;24.730;2023-10-09T09:03:41;148237.81;;;26.91;27.78
5877;BME280;2964;42.144;24.730;2023-10-09T09:06:10;148432.34;;;27.70;26.52
5877;BME280;2964;42.144;24.730;2023-10-09T09:08:38;148651.22;;;28.58;25.37
5877;BME280;2964;42.144;24.730;2023-10-09T09:11:08;148856.16;;;29.41;24.38
5877;BME280;2964;42.144;24.730;2023-10-09T09:13:42;148655.03;;;28.60;25.84
5877;BME280;2964;42.144;24.730;2023-10-09T09:16:18;149008.97;;;30.02;24.20
5877;BME280;2964;42.144;24.730;2023-10-09T09:18:53;149206.47;;;30.82;22.88
5877;BME280;2964;42.144;24.730;2023-10-09T09:21:31;148848.50;;;29.38;24.63
5877;BME280;2964;42.144;24.730;2023-10-09T09:24:05;149006.44;;;30.01;23.71
5877;BME280;2964;42.144;24.730;2023-10-09T09:26:41;149104.53;;;30.41;23.02
5877;BME280;2964;42.144;24.730;2023-10-09T09:29:12;148982.25;;;29.92;23.28
5877;BME280;2964;42.144;24.730;2023-10-09T09:31:51;148781.03;;;29.11;24.33
5877;BME280;2964;42.144;24.730;2023-10-09T09:34:18;148480.72;;;27.89;25.88
5877;BME280;2964;42.144;24.730;2023-10-09T09:36:51;148795.06;;;29.16;25.40
5877;BME280;2964;42.144;24.730;2023-10-09T09:39:22;148842.16;;;29.35;24.92
5877;BME280;2964;42.144;24.730;2023-10-09T09:41:57;148975.88;;;29.89;24.32
5877;BME280;2964;42.144;24.730;2023-10-09T09:44:31;148945.28;;;29.77;24.48
5877;BME280;2964;42.144;24.730;2023-10-09T09:47:00;149192.41;;;30.76;23.65
5877;BME280;2964;42.144;24.730;2023-10-09T09:49:27;149253.66;;;31.01;23.41
5877;BME280;2964;42.144;24.730;2023-10-09T09:51:58;149263.84;;;31.05;22.65
5877;BME280;2964;42.144;24.730;2023-10-09T09:54:26;149024.28;;;30.09;23.94
5877;BME280;2964;42.144;24.730;2023-10-09T09:56:59;148403.13;;;27.58;27.27
5877;BME280;2964;42.144;24.730;2023-10-09T09:59:37;147902.31;;;25.56;29.71
5877;BME280;2964;42.144;24.730;2023-10-09T10:02:18;147408.53;;;23.56;32.93
5877;BME280;2964;42.144;24.730;2023-10-09T10:04:51;147171.41;;;22.60;35.64
5877;BME280;2964;42.144;24.730;2023-10-09T10:07:20;146817.88;;;21.17;38.74
5877;BME280;2964;42.144;24.730;2023-10-09T10:09:50;146749.53;;;20.89;39.38
5877;BME280;2964;42.144;24.730;2023-10-09T10:12:49;146638.13;;;20.44;40.64
5877;BME280;2964;42.144;24.730;2023-10-09T10:18:55;146516.66;;;19.95;42.24
5877;BME280;2964;42.144;24.730;2023-10-09T10:21:25;146292.78;;;19.04;44.19
5877;BME280;2964;42.144;24.730;2023-10-09T10:24:42;146295.28;;;19.05;44.71
5877;BME280;2964;42.144;24.730;2023-10-09T10:27:20;146238.41;;;18.82;45.16
5877;BME280;2964;42.144;24.730;2023-10-09T10:30:27;146286.44;;;19.01;44.38
5877;BME280;2964;42.144;24.730;2023-10-09T10:32:59;146240.94;;;18.83;45.37
5877;BME280;2964;42.144;24.730;2023-10-09T10:35:35;146182.78;;;18.59;46.45
5877;BME280;2964;42.144;24.730;2023-10-09T10:38:26;146275.06;;;18.97;44.90
5877;BME280;2964;42.144;24.730;2023-10-09T10:41:12;146210.56;;;18.70;45.80
5877;BME280;2964;42.144;24.730;2023-10-09T10:43:43;146278.88;;;18.98;46.25
5877;BME280;2964;42.144;24.730;2023-10-09T10:46:48;146243.47;;;18.84;45.90
5877;BME280;2964;42.144;24.730;2023-10-09T10:49:19;146202.97;;;18.67;45.94
5877;BME280;2964;42.144;24.730;2023-10-09T10:51:49;146294.03;;;19.04;46.24
5877;BME280;2964;42.144;24.730;2023-10-09T10:54:26;146278.88;;;18.98;45.82
5877;BME280;2964;42.144;24.730;2023-10-09T10:57:18;146261.16;;;18.91;46.12
5877;BME280;2964;42.144;24.730;2023-10-09T11:00:01;146256.13;;;18.89;44.93
5877;BME280;2964;42.144;24.730;2023-10-09T11:03:00;146204.22;;;18.68;45.25
5877;BME280;2964;42.144;24.730;2023-10-09T11:05:40;146275.06;;;18.97;44.47
5877;BME280;2964;42.144;24.730;2023-10-09T11:08:09;146244.72;;;18.84;45.34
5877;BME280;2964;42.144;24.730;2023-10-09T11:10:36;146248.53;;;18.86;46.44
5877;BME280;2964;42.144;24.730;2023-10-09T11:13:20;146220.69;;;18.75;45.35
5877;BME280;2964;42.144;24.730;2023-10-09T11:16:00;146294.03;;;19.04;45.25
5877;BME280;2964;42.144;24.730;2023-10-09T11:18:54;146304.13;;;19.08;45.21
5877;BME280;2964;42.144;24.730;2023-10-09T11:21:23;146292.78;;;19.04;44.73
5877;BME280;2964;42.144;24.730;2023-10-09T11:23:57;146263.69;;;18.92;45.40
5877;BME280;2964;42.144;24.730;2023-10-09T11:26:25;146252.31;;;18.87;45.66
5877;BME280;2964;42.144;24.730;2023-10-09T11:29:06;146314.28;;;19.13;44.81
5877;BME280;2964;42.144;24.730;2023-10-09T11:31:40;146304.13;;;19.08;45.72
5877;BME280;2964;42.144;24.730;2023-10-09T11:34:20;146342.09;;;19.24;45.83
5877;BME280;2964;42.144;24.730;2023-10-09T11:36:56;146387.63;;;19.42;43.94
5877;BME280;2964;42.144;24.730;2023-10-09T11:39:25;146410.38;;;19.52;44.88
5877;BME280;2964;42.144;24.730;2023-10-09T11:42:04;146401.53;;;19.48;44.64
5877;BME280;2964;42.144;24.730;2023-10-09T11:44:39;146374.97;;;19.37;43.49
5877;BME280;2964;42.144;24.730;2023-10-09T11:47:07;146314.28;;;19.13;43.55
5877;BME280;2964;42.144;24.730;2023-10-09T11:49:51;146382.56;;;19.40;43.24
5877;BME280;2964;42.144;24.730;2023-10-09T11:52:55;146390.13;;;19.43;41.91
5877;BME280;2964;42.144;24.730;2023-10-09T11:55:40;146371.16;;;19.36;42.21
5877;BME280;2964;42.144;24.730;2023-10-09T11:58:06;146400.22;;;19.47;41.29
5877;BME280;2964;42.144;24.730;2023-10-09T12:00:34;146372.41;;;19.36;42.74
5877;BME280;2964;42.144;24.730;2023-10-09T12:03:13;146430.59;;;19.60;41.70
5877;BME280;2964;42.144;24.730;2023-10-09T12:05:40;146447.03;;;19.66;42.43
5877;BME280;2964;42.144;24.730;2023-10-09T12:08:11;146397.72;;;19.46;41.78
5877;BME280;2964;42.144;24.730;2023-10-09T12:10:40;146391.38;;;19.44;41.88
5877;BME280;2964;42.144;24.730;2023-10-09T12:13:07;146450.84;;;19.68;42.33
5877;BME280;2964;42.144;24.730;2023-10-09T12:15:34;146454.59;;;19.70;42.93
5877;BME280;2964;42.144;24.730;2023-10-09T12:18:05;146419.22;;;19.55;42.17
5877;BME280;2964;42.144;24.730;2023-10-09T12:20:35;146414.19;;;19.53;41.88
5877;BME280;2964;42.144;24.730;2023-10-09T12:23:03;146495.13;;;19.86;41.40
5877;BME280;2964;42.144;24.730;2023-10-09T12:25:32;146485.03;;;19.82;41.35
5877;BME280;2964;42.144;24.730;2023-10-09T12:27:58;146411.63;;;19.52;41.86
5877;BME280;2964;42.144;24.730;2023-10-09T12:30:28;146433.13;;;19.61;42.76
5877;BME280;2964;42.144;24.730;2023-10-09T12:32:56;146477.41;;;19.79;41.89
5877;BME280;2964;42.144;24.730;2023-10-09T12:35:23;146491.31;;;19.84;42.38
5877;BME280;2964;42.144;24.730;2023-10-09T12:37:52;146500.19;;;19.88;41.65
5877;BME280;2964;42.144;24.730;2023-10-09T12:40:20;146519.19;;;19.96;41.13
5877;BME280;2964;42.144;24.730;2023-10-09T12:42:51;146534.38;;;20.02;40.83
5877;BME280;2964;42.144;24.730;2023-10-09T12:45:20;146536.91;;;20.03;40.55
5877;BME280;2964;42.144;24.730;2023-10-09T12:47:52;146545.72;;;20.06;40.07
5877;BME280;2964;42.144;24.730;2023-10-09T12:50:19;146526.75;;;19.99;40.07
5877;BME280;2964;42.144;24.730;2023-10-09T12:52:55;146519.19;;;19.96;40.74
5877;BME280;2964;42.144;24.730;2023-10-09T12:55:22;146514.09;;;19.94;40.87
5877;BME280;2964;42.144;24.730;2023-10-09T12:57:59;146491.31;;;19.84;40.92
5877;BME280;2964;42.144;24.730;2023-10-09T13:00:32;146488.81;;;19.83;40.70
5877;BME280;2964;42.144;24.730;2023-10-09T13:03:04;146495.13;;;19.86;41.13
5877;BME280;2964;42.144;24.730;2023-10-09T13:05:45;146501.47;;;19.89;41.18
5877;BME280;2964;42.144;24.730;2023-10-09T13:08:20;146526.75;;;19.99;40.85
5877;BME280;2964;42.144;24.730;2023-10-09T13:10:51;146514.09;;;19.94;40.74
5877;BME280;2964;42.144;24.730;2023-10-09T13:13:28;146547.03;;;20.07;40.70
5877;BME280;2964;42.144;24.730;2023-10-09T13:16:06;146514.09;;;19.94;40.16
5877;BME280;2964;42.144;24.730;2023-10-09T13:18:33;146505.28;;;19.90;40.83
5877;BME280;2964;42.144;24.730;2023-10-09T13:20:59;146526.75;;;19.99;41.34
5877;BME280;2964;42.144;24.730;2023-10-09T13:23:30;146530.56;;;20.00;41.22
5877;BME280;2964;42.144;24.730;2023-10-09T13:26:05;146571.06;;;20.17;39.95
5877;BME280;2964;42.144;24.730;2023-10-09T13:28:44;146420.47;;;19.56;40.00
5877;BME280;2964;42.144;24.730;2023-10-09T13:31:11;146574.84;;;20.18;40.36
5877;BME280;2964;42.144;24.730;2023-10-09T13:33:39;146533.13;;;20.01;40.02
5877;BME280;2964;42.144;24.730;2023-10-09T13:36:06;146471.13;;;19.76;39.89
5877;BME280;2964;42.144;24.730;2023-10-09T13:38:43;146377.47;;;19.38;40.26
5877;BME280;2964;42.144;24.730;2023-10-09T13:41:10;146524.25;;;19.98;40.35
5877;BME280;2964;42.144;24.730;2023-10-09T13:43:40;146536.91;;;20.03;40.26